Time;durP1;ratioP1;P1;durP2;ratioP2;P2;SDS_P1;SDS_P2;PMS_P1;PMS_P2;Temp;Humidity;BMP_temperature;BMP_pressure;BME280_temperature;BME280_humidity;BME280_pressure;Samples;Min_cycle;Max_cycle;Signal;HPM_P1;HPM_P2
2022/11/03 00:01:34;;;;;;;;;;;;;;;21.70;58.58;100383.13;7250806;19;152855;-57
2022/11/03 00:04:02;;;;;;;;;;;;;;;21.70;58.26;100386.78;7256560;19;154018;-57
2022/11/03 00:06:29;;;;;;;;;;;;;;;21.72;58.51;100394.88;7254012;19;153079;-57
2022/11/03 00:08:56;;;;;;;;;;;;;;;21.73;58.44;100393.72;7263195;19;153800;-57
2022/11/03 00:11:23;;;;;;;;;;;;;;;21.76;59.00;100397.88;7247236;19;153770;-57
2022/11/03 00:13:50;;;;;;;;;;;;;;;21.75;58.91;100399.84;7249815;19;153996;-57
2022/11/03 00:16:17;;;;;;;;;;;;;;;21.77;58.60;100405.94;7252876;19;154208;-57
2022/11/03 00:18:44;;;;;;;;;;;;;;;21.79;58.91;100394.38;7255249;19;153656;-57
2022/11/03 00:21:12;;;;;;;;;;;;;;;21.80;58.80;100410.94;7254435;19;155633;-58
2022/11/03 00:23:40;;;;;;;;;;;;;;;21.80;58.66;100396.88;7253641;19;153148;-57
2022/11/03 00:26:10;;;;;;;;;;;;;;;21.79;59.14;100392.41;7252441;19;154855;-57
2022/11/03 00:28:38;;;;;;;;;;;;;;;21.80;58.81;100390.41;7256522;19;153460;-57
2022/11/03 00:31:08;;;;;;;;;;;;;;;21.80;58.87;100396.88;7250398;19;154005;-58
2022/11/03 00:33:36;;;;;;;;;;;;;;;21.81;58.88;100403.31;7257091;19;154195;-58
2022/11/03 00:36:03;;;;;;;;;;;;;;;21.80;58.94;100394.06;7252181;19;155131;-58
2022/11/03 00:38:31;;;;;;;;;;;;;;;21.82;58.86;100404.97;7254766;19;153683;-57
2022/11/03 00:40:58;;;;;;;;;;;;;;;21.82;58.58;100402.97;7253270;19;154018;-58
2022/11/03 00:43:26;;;;;;;;;;;;;;;21.82;58.79;100399.34;7250890;19;153370;-58
2022/11/03 00:45:54;;;;;;;;;;;;;;;21.83;58.40;100404.66;7253491;19;155731;-58
2022/11/03 00:50:51;;;;;;;;;;;;;;;21.83;58.52;100406.63;7258654;19;154694;-58
2022/11/03 00:53:18;;;;;;;;;;;;;;;21.84;58.31;100411.09;7254521;19;154072;-58
2022/11/03 00:55:48;;;;;;;;;;;;;;;21.83;58.50;100398.19;7256171;19;154461;-58
2022/11/03 00:58:15;;;;;;;;;;;;;;;21.82;58.50;100388.09;7253214;19;154035;-57
2022/11/03 01:00:42;;;;;;;;;;;;;;;21.81;58.54;100381.63;7253775;19;155003;-57
2022/11/03 01:03:09;;;;;;;;;;;;;;;21.80;58.19;100388.44;7255943;19;153226;-58
2022/11/03 01:08:08;;;;;;;;;;;;;;;21.80;58.63;100379.19;7250935;19;152210;-58
2022/11/03 01:10:36;;;;;;;;;;;;;;;21.77;58.54;100357.31;7252750;19;152514;-57
2022/11/03 01:13:03;;;;;;;;;;;;;;;21.76;58.77;100352.88;7256534;19;155178;-56
2022/11/03 01:15:30;;;;;;;;;;;;;;;21.77;58.40;100374.19;7250955;19;153275;-56
2022/11/03 01:17:57;;;;;;;;;;;;;;;21.76;58.61;100369.75;7256439;19;153523;-57
2022/11/03 01:20:24;;;;;;;;;;;;;;;21.74;58.94;100359.66;7254371;19;155454;-57
2022/11/03 01:22:51;;;;;;;;;;;;;;;21.73;58.89;100357.16;7254010;19;154330;-57
2022/11/03 01:25:18;;;;;;;;;;;;;;;21.70;58.87;100349.41;7249093;19;154355;-57
2022/11/03 01:27:45;;;;;;;;;;;;;;;21.70;59.30;100352.22;7253716;19;154111;-57
2022/11/03 01:30:12;;;;;;;;;;;;;;;21.69;59.15;100339.31;7248536;19;154742;-57
2022/11/03 01:32:38;;;;;;;;;;;;;;;21.68;59.15;100354.50;7252073;19;153384;-57
2022/11/03 01:35:06;;;;;;;;;;;;;;;21.68;59.61;100360.13;7258039;19;153792;-57
2022/11/03 01:37:33;;;;;;;;;;;;;;;21.67;59.09;100358.47;7253516;19;153857;-57
2022/11/03 01:39:59;;;;;;;;;;;;;;;21.65;59.19;100352.38;7247503;19;153429;-57
2022/11/03 01:42:26;;;;;;;;;;;;;;;21.62;59.75;100358.66;7250035;19;153426;-57
2022/11/03 01:44:53;;;;;;;;;;;;;;;21.62;59.67;100358.66;7250556;19;154117;-57
2022/11/03 01:47:23;;;;;;;;;;;;;;;21.62;59.29;100356.66;7250554;19;152723;-57
2022/11/03 01:49:52;;;;;;;;;;;;;;;21.61;59.68;100349.41;7252064;19;154369;-57
2022/11/03 01:52:22;;;;;;;;;;;;;;;21.61;59.26;100345.75;7250242;19;155562;-57
2022/11/03 01:54:53;;;;;;;;;;;;;;;21.62;59.28;100331.34;7251108;19;155549;-57
2022/11/03 01:57:24;;;;;;;;;;;;;;;21.62;59.35;100324.94;7256642;19;154655;-57
2022/11/03 01:59:52;;;;;;;;;;;;;;;21.61;59.31;100318.47;7242214;19;153168;-57
2022/11/03 02:02:19;;;;;;;;;;;;;;;21.61;59.20;100295.97;7255083;19;152845;-57
2022/11/03 02:04:46;;;;;;;;;;;;;;;21.60;59.36;100296.31;7248976;19;153293;-58
2022/11/03 02:07:26;;;;;;;;;;;;;;;21.59;59.30;100281.41;7250197;19;154448;-58
2022/11/03 02:09:53;;;;;;;;;;;;;;;21.58;59.10;100267.69;7254097;19;154863;-57
2022/11/03 02:12:20;;;;;;;;;;;;;;;21.56;59.49;100272.84;7250410;19;153379;-59
2022/11/03 02:14:50;;;;;;;;;;;;;;;21.56;59.49;100264.41;7252502;19;154673;-58
2022/11/03 02:17:18;;;;;;;;;;;;;;;21.54;59.56;100259.09;7260006;19;154725;-58
2022/11/03 02:19:48;;;;;;;;;;;;;;;21.52;59.26;100261.44;7251709;19;153788;-58
2022/11/03 02:22:25;;;;;;;;;;;;;;;21.51;59.23;100248.53;7247891;19;153171;-58
2022/11/03 02:25:00;;;;;;;;;;;;;;;21.50;59.31;100234.78;7252008;19;153448;-57
2022/11/03 02:27:27;;;;;;;;;;;;;;;21.49;59.37;100242.41;7257802;19;155716;-57
2022/11/03 02:29:56;;;;;;;;;;;;;;;21.47;59.61;100233.50;7258114;19;152428;-57
2022/11/03 02:32:25;;;;;;;;;;;;;;;21.47;59.68;100224.22;7255900;19;154337;-57
2022/11/03 02:34:58;;;;;;;;;;;;;;;21.45;59.35;100221.75;7260508;19;153948;-57
2022/11/03 02:37:28;;;;;;;;;;;;;;;21.44;59.83;100224.91;7263591;19;153437;-57
2022/11/03 02:40:00;;;;;;;;;;;;;;;21.43;59.53;100218.44;7266467;19;154198;-57
2022/11/03 02:42:27;;;;;;;;;;;;;;;21.43;59.57;100217.63;7256989;19;153864;-57
2022/11/03 02:44:56;;;;;;;;;;;;;;;21.42;59.68;100213.16;7258002;19;154093;-57
2022/11/03 02:47:24;;;;;;;;;;;;;;;21.41;60.01;100197.44;7257392;19;154360;-57
2022/11/03 02:49:53;;;;;;;;;;;;;;;21.40;60.02;100192.97;7254909;19;156514;-57
2022/11/03 02:52:30;;;;;;;;;;;;;;;21.39;59.99;100189.38;7256094;19;153612;-57
2022/11/03 02:54:57;;;;;;;;;;;;;;;21.37;59.77;100188.84;7258634;19;155040;-57
2022/11/03 02:57:28;;;;;;;;;;;;;;;21.36;59.81;100175.97;7258842;19;153172;-57
2022/11/03 02:59:58;;;;;;;;;;;;;;;21.35;60.33;100174.31;7259358;19;153459;-57
2022/11/03 03:02:31;;;;;;;;;;;;;;;21.35;60.39;100176.31;7266218;19;154472;-57
2022/11/03 03:05:01;;;;;;;;;;;;;;;21.32;60.27;100186.22;7256859;19;152389;-57
2022/11/03 03:07:30;;;;;;;;;;;;;;;21.31;60.39;100184.56;7256114;19;153453;-57
2022/11/03 03:09:59;;;;;;;;;;;;;;;21.31;60.46;100156.47;7257987;19;152611;-57
2022/11/03 03:12:27;;;;;;;;;;;;;;;21.29;60.53;100144.75;7253058;19;153909;-57
2022/11/03 03:14:58;;;;;;;;;;;;;;;21.29;60.47;100136.31;7249861;19;153955;-57
2022/11/03 03:17:34;;;;;;;;;;;;;;;21.29;61.16;100116.66;7255054;19;154747;-57
2022/11/03 03:20:12;;;;;;;;;;;;;;;21.27;61.06;100111.34;7253329;19;154871;-57
2022/11/03 03:22:48;;;;;;;;;;;;;;;21.26;61.11;100112.50;7254054;19;154471;-57
2022/11/03 03:25:19;;;;;;;;;;;;;;;21.25;61.27;100101.63;7264351;19;154288;-57
2022/11/03 03:27:48;;;;;;;;;;;;;;;21.24;61.54;100091.53;7255434;19;153798;-57
2022/11/03 03:30:16;;;;;;;;;;;;;;;21.24;61.60;100078.31;7254535;19;152794;-56
2022/11/03 03:32:45;;;;;;;;;;;;;;;21.23;61.32;100064.59;7256514;19;156139;-56
2022/11/03 03:35:16;;;;;;;;;;;;;;;21.22;61.50;100063.75;7249857;19;154016;-56
2022/11/03 03:37:45;;;;;;;;;;;;;;;21.22;61.40;100058.13;7254048;19;151958;-57
2022/11/03 03:40:15;;;;;;;;;;;;;;;21.20;61.48;100057.66;7255393;19;154736;-57
2022/11/03 03:42:43;;;;;;;;;;;;;;;21.19;61.41;100049.56;7254605;19;153320;-57
2022/11/03 03:45:11;;;;;;;;;;;;;;;21.20;61.46;100048.41;7248949;19;153467;-57
2022/11/03 03:47:38;;;;;;;;;;;;;;;21.18;61.53;100039.47;7265351;19;154631;-57
2022/11/03 03:50:05;;;;;;;;;;;;;;;21.17;61.58;100037.81;7255906;19;153535;-57
2022/11/03 03:52:33;;;;;;;;;;;;;;;21.14;61.79;100025.28;7253831;19;155776;-57
2022/11/03 03:55:00;;;;;;;;;;;;;;;21.14;61.53;100022.47;7252283;19;153705;-57
2022/11/03 03:57:29;;;;;;;;;;;;;;;21.14;61.81;100013.22;7255516;19;153040;-57
2022/11/03 03:59:56;;;;;;;;;;;;;;;21.12;61.72;99999.47;7255971;19;154430;-57
2022/11/03 04:02:23;;;;;;;;;;;;;;;21.09;61.76;99997.34;7256459;19;154339;-56
2022/11/03 04:04:50;;;;;;;;;;;;;;;21.09;61.98;100002.13;7254535;19;153453;-57
2022/11/03 04:09:53;;;;;;;;;;;;;;;21.08;61.58;99983.63;7262490;19;153457;-57
2022/11/03 04:22:48;;;;;;;;;;;;;;;21.03;61.51;99989.44;7252678;19;153789;-57
2022/11/03 04:25:14;;;;;;;;;;;;;;;21.01;61.85;99986.97;7256097;19;153758;-57
2022/11/03 04:27:41;;;;;;;;;;;;;;;21.00;61.65;99973.25;7254087;19;152851;-57
2022/11/03 04:30:08;;;;;;;;;;;;;;;20.97;62.34;99983.19;7262106;19;154823;-57
2022/11/03 04:32:36;;;;;;;;;;;;;;;20.97;62.05;99979.53;7255908;19;154313;-57
2022/11/03 04:35:12;;;;;;;;;;;;;;;20.96;62.35;99958.25;7252470;19;153547;-57
2022/11/03 04:37:38;;;;;;;;;;;;;;;20.93;62.04;99954.13;7255005;19;154922;-57
2022/11/03 04:40:15;;;;;;;;;;;;;;;20.93;62.38;99954.13;7257866;19;154506;-57
2022/11/03 04:42:43;;;;;;;;;;;;;;;20.93;62.45;99959.75;7252980;19;154732;-57
2022/11/03 04:45:15;;;;;;;;;;;;;;;20.93;62.41;99956.94;7248590;19;153558;-58
2022/11/03 04:47:42;;;;;;;;;;;;;;;20.91;62.49;99955.59;7249058;19;153728;-56
2022/11/03 04:50:14;;;;;;;;;;;;;;;20.89;62.43;99947.53;7254025;19;153799;-57
2022/11/03 04:52:41;;;;;;;;;;;;;;;20.88;62.32;99943.06;7260264;19;152967;-57
2022/11/03 04:55:13;;;;;;;;;;;;;;;20.90;62.30;99945.53;7253637;19;153025;-57
2022/11/03 04:57:40;;;;;;;;;;;;;;;20.89;62.79;99932.66;7254966;19;153696;-57
2022/11/03 05:00:12;;;;;;;;;;;;;;;20.87;62.54;99935.81;7254760;19;152619;-57
2022/11/03 05:02:39;;;;;;;;;;;;;;;20.85;62.52;99926.88;7252459;19;154638;-57
2022/11/03 05:05:13;;;;;;;;;;;;;;;20.84;62.51;99916.84;7254515;19;152360;-57
2022/11/03 05:07:40;;;;;;;;;;;;;;;20.83;62.44;99910.38;7252929;19;154629;-57
2022/11/03 05:10:11;;;;;;;;;;;;;;;20.83;62.83;99901.13;7252420;19;153841;-57
2022/11/03 05:12:38;;;;;;;;;;;;;;;20.81;62.77;99906.25;7251548;19;153966;-58
2022/11/03 05:15:09;;;;;;;;;;;;;;;20.81;62.58;99897.84;7258130;19;153834;-57
2022/11/03 05:17:36;;;;;;;;;;;;;;;20.77;63.06;99908.91;7256055;19;151867;-57
2022/11/03 05:20:03;;;;;;;;;;;;;;;20.73;62.83;99885.47;7254408;19;155621;-57
2022/11/03 05:22:32;;;;;;;;;;;;;;;20.72;62.50;99899.84;7253646;19;154690;-57
2022/11/03 05:25:01;;;;;;;;;;;;;;;20.72;62.74;99897.88;7253480;19;153499;-57
2022/11/03 05:27:28;;;;;;;;;;;;;;;20.72;62.33;99897.88;7252386;19;153678;-57
2022/11/03 05:29:58;;;;;;;;;;;;;;;20.72;62.51;99891.41;7252128;19;153678;-57
2022/11/03 05:32:29;;;;;;;;;;;;;;;20.72;62.85;99883.81;7253808;19;154048;-57
2022/11/03 05:34:56;;;;;;;;;;;;;;;20.71;62.66;99875.75;7254531;19;152937;-57
2022/11/03 05:37:25;;;;;;;;;;;;;;;20.68;62.70;99871.63;7260947;19;154512;-57
2022/11/03 05:39:55;;;;;;;;;;;;;;;20.68;62.87;99877.25;7255476;19;153286;-57
2022/11/03 05:42:22;;;;;;;;;;;;;;;20.66;63.05;99868.34;7251581;19;153467;-57
2022/11/03 05:44:49;;;;;;;;;;;;;;;20.66;62.67;99859.94;7251706;19;154638;-57
2022/11/03 05:47:26;;;;;;;;;;;;;;;20.63;62.81;99851.34;7253218;19;152030;-57
2022/11/03 05:49:55;;;;;;;;;;;;;;;20.64;62.84;99870.66;7255143;19;153937;-57
2022/11/03 05:52:23;;;;;;;;;;;;;;;20.63;62.55;99870.97;7254149;19;152875;-57
2022/11/03 05:54:51;;;;;;;;;;;;;;;20.63;62.94;99848.53;7253175;19;153505;-58
2022/11/03 05:57:18;;;;;;;;;;;;;;;20.62;63.04;99844.94;7250804;19;154011;-58
2022/11/03 05:59:46;;;;;;;;;;;;;;;20.62;62.75;99855.31;7259821;19;153322;-57
2022/11/03 06:02:32;;;;;;;;;;;;;;;20.59;62.74;99833.53;7250904;19;153370;-57
2022/11/03 06:04:59;;;;;;;;;;;;;;;20.56;63.00;99835.03;7252484;19;153915;-57
2022/11/03 06:07:28;;;;;;;;;;;;;;;20.57;63.18;99827.44;7252004;19;154389;-57
2022/11/03 06:09:56;;;;;;;;;;;;;;;20.56;63.08;99829.41;7251172;19;154062;-57
2022/11/03 06:12:24;;;;;;;;;;;;;;;20.55;63.24;99833.38;7250044;19;152350;-56
2022/11/03 06:14:51;;;;;;;;;;;;;;;20.55;62.78;99841.78;7252625;19;152123;-56
2022/11/03 06:17:21;;;;;;;;;;;;;;;20.55;63.14;99840.97;7253436;19;154443;-56
2022/11/03 06:19:49;;;;;;;;;;;;;;;20.53;63.12;99846.09;7250199;19;153944;-56
2022/11/03 06:22:25;;;;;;;;;;;;;;;20.52;62.95;99859.31;7261559;19;153012;-57
2022/11/03 06:24:55;;;;;;;;;;;;;;;20.51;62.78;99832.41;7253346;19;153703;-57
2022/11/03 06:27:23;;;;;;;;;;;;;;;20.52;63.06;99836.88;7250041;19;152973;-57
2022/11/03 06:29:52;;;;;;;;;;;;;;;20.52;62.92;99845.28;7249139;19;153840;-57
2022/11/03 06:32:19;;;;;;;;;;;;;;;20.54;62.51;99848.56;7251926;19;153508;-57
2022/11/03 06:34:48;;;;;;;;;;;;;;;20.58;63.30;99855.16;7251744;19;153923;-57
2022/11/03 06:37:15;;;;;;;;;;;;;;;20.62;63.54;99849.72;7252823;19;154127;-57
2022/11/03 06:39:42;;;;;;;;;;;;;;;20.65;63.81;99866.69;7252090;19;155022;-58
2022/11/03 06:42:11;;;;;;;;;;;;;;;20.67;64.33;99844.72;7254981;19;154698;-56
2022/11/03 06:44:39;;;;;;;;;;;;;;;20.71;64.12;99840.09;7251724;19;154441;-58
2022/11/03 06:47:20;;;;;;;;;;;;;;;20.74;63.94;99839.41;7253855;19;154318;-56
2022/11/03 06:49:47;;;;;;;;;;;;;;;20.80;64.12;99848.47;7249294;19;153376;-58
2022/11/03 06:52:23;;;;;;;;;;;;;;;20.84;63.99;99849.44;7251332;19;154168;-57
2022/11/03 06:54:53;;;;;;;;;;;;;;;20.88;64.03;99860.81;7250572;19;152360;-57
2022/11/03 06:57:20;;;;;;;;;;;;;;;20.93;64.24;99861.47;7249456;19;154818;-57
2022/11/03 06:59:49;;;;;;;;;;;;;;;20.98;64.10;99843.59;7252250;19;153136;-57
2022/11/03 07:02:41;;;;;;;;;;;;;;;21.02;64.53;99839.78;7249775;19;152485;-57
2022/11/03 07:05:16;;;;;;;;;;;;;;;21.08;64.49;99840.38;7259063;19;154470;-57
2022/11/03 07:07:43;;;;;;;;;;;;;;;21.11;64.14;99823.69;7250818;19;153184;-56
2022/11/03 07:10:10;;;;;;;;;;;;;;;21.17;64.15;99815.91;7250593;19;155834;-57
2022/11/03 07:12:37;;;;;;;;;;;;;;;21.21;64.11;99814.09;7254963;19;153158;-57
2022/11/03 07:15:15;;;;;;;;;;;;;;;21.26;64.24;99825.94;7256942;19;155625;-59
2022/11/03 07:17:42;;;;;;;;;;;;;;;21.31;64.02;99836.16;7256734;19;154038;-57
2022/11/03 07:20:15;;;;;;;;;;;;;;;21.34;64.03;99857.97;7258497;19;153973;-56
2022/11/03 07:22:42;;;;;;;;;;;;;;;21.37;63.77;99862.88;7261279;19;153760;-58
2022/11/03 07:25:15;;;;;;;;;;;;;;;21.41;63.77;99863.84;7257792;19;153075;-58
2022/11/03 07:27:42;;;;;;;;;;;;;;;21.46;63.55;99854.41;7263029;19;154303;-58
2022/11/03 07:30:11;;;;;;;;;;;;;;;21.48;63.03;99849.28;7257605;19;152720;-58
2022/11/03 07:32:38;;;;;;;;;;;;;;;21.50;62.79;99844.94;7259333;19;154122;-58
2022/11/03 07:35:15;;;;;;;;;;;;;;;21.52;62.80;99845.44;7256964;19;152831;-58
2022/11/03 07:37:46;;;;;;;;;;;;;;;21.55;62.39;99855.16;7259445;19;154214;-58
2022/11/03 07:40:17;;;;;;;;;;;;;;;21.56;62.42;99863.25;7259174;19;151905;-58
2022/11/03 07:42:44;;;;;;;;;;;;;;;21.50;59.86;99861.81;7258435;19;154078;-57
2022/11/03 07:45:20;;;;;;;;;;;;;;;21.29;58.84;99867.41;7255203;19;155087;-56
2022/11/03 07:47:47;;;;;;;;;;;;;;;21.33;58.47;99866.72;7258768;19;154521;-57
2022/11/03 07:50:14;;;;;;;;;;;;;;;21.37;59.09;99867.69;7266710;19;153281;-57
2022/11/03 07:52:42;;;;;;;;;;;;;;;21.36;58.94;99866.84;7257907;19;154524;-56
2022/11/03 07:55:10;;;;;;;;;;;;;;;21.36;58.69;99866.03;7259123;19;153966;-57
2022/11/03 07:57:38;;;;;;;;;;;;;;;21.37;59.00;99860.09;7252581;19;154896;-57
2022/11/03 08:00:07;;;;;;;;;;;;;;;21.37;58.78;99856.44;7257233;19;151887;-57
2022/11/03 08:02:40;;;;;;;;;;;;;;;21.38;58.88;99844.03;7256063;19;154223;-57
2022/11/03 08:05:07;;;;;;;;;;;;;;;21.37;59.28;99842.41;7255077;19;153104;-57
2022/11/03 08:07:34;;;;;;;;;;;;;;;21.39;58.92;99840.06;7252310;19;152351;-57
2022/11/03 08:10:02;;;;;;;;;;;;;;;21.38;59.08;99841.25;7257418;19;154771;-57
2022/11/03 08:12:29;;;;;;;;;;;;;;;21.38;58.90;99841.25;7262665;19;154358;-57
2022/11/03 08:14:56;;;;;;;;;;;;;;;21.37;59.25;99843.22;7256763;19;155019;-57
2022/11/03 08:17:23;;;;;;;;;;;;;;;21.38;59.04;99847.69;7253164;19;156143;-57
2022/11/03 08:19:51;;;;;;;;;;;;;;;21.37;59.03;99846.03;7256779;19;153262;-58
2022/11/03 08:22:18;;;;;;;;;;;;;;;21.42;59.37;99850.63;7248804;19;154304;-57
2022/11/03 08:24:46;;;;;;;;;;;;;;;21.44;59.10;99843.50;7226945;19;155067;-57
2022/11/03 08:27:13;;;;;;;;;;;;;;;21.46;59.43;99849.59;7252235;19;153362;-57
2022/11/03 08:29:39;;;;;;;;;;;;;;;21.44;59.68;99860.34;7253687;19;154762;-57
2022/11/03 08:32:06;;;;;;;;;;;;;;;21.44;59.64;99865.19;7254949;19;154263;-57
2022/11/03 08:34:33;;;;;;;;;;;;;;;21.42;59.36;99870.31;7261832;19;153362;-57
2022/11/03 08:37:01;;;;;;;;;;;;;;;21.40;59.16;99876.25;7254102;19;153752;-57
2022/11/03 08:39:30;;;;;;;;;;;;;;;21.39;58.71;99869.00;7253290;19;152735;-57
2022/11/03 08:41:57;;;;;;;;;;;;;;;21.36;58.82;99861.25;7256426;19;153665;-56
2022/11/03 08:44:24;;;;;;;;;;;;;;;21.37;58.63;99853.63;7255997;19;153958;-57
2022/11/03 08:46:51;;;;;;;;;;;;;;;21.37;58.94;99839.59;7254428;19;153546;-58
2022/11/03 08:49:18;;;;;;;;;;;;;;;21.38;59.32;99844.03;7254236;19;153567;-58
2022/11/03 08:51:45;;;;;;;;;;;;;;;21.40;59.22;99864.19;7252784;19;153503;-58
2022/11/03 08:54:12;;;;;;;;;;;;;;;21.43;59.45;99853.09;7262098;19;154278;-58
2022/11/03 08:56:39;;;;;;;;;;;;;;;21.44;59.57;99843.50;7253462;19;154402;-58
2022/11/03 08:59:06;;;;;;;;;;;;;;;21.48;59.87;99844.47;7258261;19;154057;-57
2022/11/03 09:01:33;;;;;;;;;;;;;;;21.52;60.21;99834.19;7259180;19;154534;-58
2022/11/03 09:04:00;;;;;;;;;;;;;;;21.55;59.97;99839.13;7254349;19;153659;-58
2022/11/03 09:06:28;;;;;;;;;;;;;;;21.59;60.13;99842.06;7256228;19;151950;-58
2022/11/03 09:08:55;;;;;;;;;;;;;;;21.61;59.74;99840.56;7257500;19;153698;-58
2022/11/03 09:11:42;;;;;;;;;;;;;;;21.64;59.85;99828.63;7253673;19;153765;-58
2022/11/03 09:14:09;;;;;;;;;;;;;;;21.66;59.76;99834.75;7254346;19;153374;-59
2022/11/03 09:16:36;;;;;;;;;;;;;;;21.68;59.80;99829.59;7262499;19;153786;-58
2022/11/03 09:19:03;;;;;;;;;;;;;;;21.70;59.95;99829.25;7257525;19;153534;-58
2022/11/03 09:21:30;;;;;;;;;;;;;;;21.72;59.54;99824.91;7255896;19;154641;-58
2022/11/03 09:23:58;;;;;;;;;;;;;;;21.73;59.53;99818.13;7254699;19;153872;-58
2022/11/03 09:26:26;;;;;;;;;;;;;;;21.77;59.83;99811.81;7253898;19;153247;-58
2022/11/03 09:28:53;;;;;;;;;;;;;;;21.77;59.74;99803.38;7254701;19;154517;-58
2022/11/03 09:31:20;;;;;;;;;;;;;;;21.78;59.38;99794.59;7252858;19;153843;-58
2022/11/03 09:33:47;;;;;;;;;;;;;;;21.80;59.12;99791.47;7253161;19;153551;-58
2022/11/03 09:36:14;;;;;;;;;;;;;;;21.80;59.57;99797.09;7255926;19;153352;-58
2022/11/03 09:38:41;;;;;;;;;;;;;;;21.81;59.47;99807.97;7259625;19;153206;-58
2022/11/03 09:41:08;;;;;;;;;;;;;;;21.83;59.31;99804.81;7255052;19;153531;-57
2022/11/03 09:43:55;;;;;;;;;;;;;;;21.83;59.68;99802.84;7253157;19;152759;-58
2022/11/03 09:46:23;;;;;;;;;;;;;;;21.84;59.16;99798.88;7254619;19;154629;-58
2022/11/03 09:48:50;;;;;;;;;;;;;;;21.86;59.16;99795.69;7254219;19;153247;-59
2022/11/03 09:51:19;;;;;;;;;;;;;;;21.86;59.22;99804.13;7254932;19;152836;-59
2022/11/03 09:53:46;;;;;;;;;;;;;;;21.86;59.18;99807.75;7252250;19;153315;-58
2022/11/03 09:56:15;;;;;;;;;;;;;;;21.88;59.12;99807.44;7252481;19;152716;-58
2022/11/03 09:58:42;;;;;;;;;;;;;;;21.88;59.09;99802.63;7250005;19;153334;-58
2022/11/03 10:01:13;;;;;;;;;;;;;;;21.88;58.97;99810.25;7262914;19;153761;-58
2022/11/03 10:03:40;;;;;;;;;;;;;;;21.90;59.10;99813.50;7256217;19;156121;-58
2022/11/03 10:06:07;;;;;;;;;;;;;;;21.89;59.12;99798.66;7257498;19;153935;-58
2022/11/03 10:08:40;;;;;;;;;;;;;;;21.89;59.20;99807.09;7254256;19;154386;-58
2022/11/03 10:11:08;;;;;;;;;;;;;;;21.90;59.25;99810.69;7255949;19;154133;-58
2022/11/03 10:13:37;;;;;;;;;;;;;;;21.90;59.11;99805.06;7250784;19;153996;-58
2022/11/03 10:16:06;;;;;;;;;;;;;;;21.91;59.41;99801.94;7256191;19;153662;-58
2022/11/03 10:18:35;;;;;;;;;;;;;;;21.91;59.41;99792.66;7253921;19;156043;-58
2022/11/03 10:21:03;;;;;;;;;;;;;;;21.90;59.18;99807.88;7255545;19;152395;-58
2022/11/03 10:23:31;;;;;;;;;;;;;;;21.92;58.91;99803.56;7259900;19;154126;-56
2022/11/03 10:26:07;;;;;;;;;;;;;;;21.90;58.57;99799.44;7254525;19;154229;-56
2022/11/03 10:28:34;;;;;;;;;;;;;;;21.88;58.44;99785.75;7249647;19;154375;-56
2022/11/03 10:31:07;;;;;;;;;;;;;;;21.85;58.14;99789.22;7255486;19;152649;-56
2022/11/03 10:33:40;;;;;;;;;;;;;;;21.82;59.23;99798.38;7249168;19;154353;-56
2022/11/03 10:36:14;;;;;;;;;;;;;;;21.67;54.45;99794.19;7250209;19;154545;-57
2022/11/03 10:38:43;;;;;;;;;;;;;;;21.56;53.27;99792.16;7252914;19;154924;-57
2022/11/03 10:41:10;;;;;;;;;;;;;;;21.45;52.39;99786.13;7251343;19;153660;-56
2022/11/03 10:43:38;;;;;;;;;;;;;;;21.35;52.36;99778.09;7253077;19;153452;-57
2022/11/03 10:46:14;;;;;;;;;;;;;;;21.32;55.20;99787.22;7263259;19;152014;-56
2022/11/03 10:49:02;;;;;;;;;;;;;;;21.34;57.10;99784.91;7261435;19;155293;-56
2022/11/03 10:51:29;;;;;;;;;;;;;;;21.35;57.06;99782.94;7257821;19;153926;-56
2022/11/03 10:53:57;;;;;;;;;;;;;;;21.28;56.00;99787.09;7261593;19;153960;-56
2022/11/03 10:56:24;;;;;;;;;;;;;;;21.26;56.29;99783.78;7257875;19;153741;-56
2022/11/03 10:58:51;;;;;;;;;;;;;;;21.24;56.31;99779.69;7257206;19;155705;-56
2022/11/03 11:01:18;;;;;;;;;;;;;;;21.22;56.28;99770.75;7257661;19;151856;-56
2022/11/03 11:03:46;;;;;;;;;;;;;;;21.21;56.38;99771.94;7257763;19;154991;-56
2022/11/03 11:06:23;;;;;;;;;;;;;;;21.22;56.78;99765.16;7265884;19;154145;-56
2022/11/03 11:08:52;;;;;;;;;;;;;;;21.19;57.11;99765.84;7260907;19;154844;-56
2022/11/03 11:11:25;;;;;;;;;;;;;;;21.16;56.94;99747.69;7258869;19;155686;-56
2022/11/03 11:14:02;;;;;;;;;;;;;;;21.18;57.01;99750.16;7255564;19;152909;-56
2022/11/03 11:16:38;;;;;;;;;;;;;;;21.17;57.41;99752.13;7260998;19;154772;-56
2022/11/03 11:19:05;;;;;;;;;;;;;;;21.17;57.25;99748.50;7256108;19;154207;-56
2022/11/03 11:21:39;;;;;;;;;;;;;;;21.15;57.68;99742.41;7259217;19;153870;-56
2022/11/03 11:24:08;;;;;;;;;;;;;;;21.14;57.73;99738.78;7260527;19;152984;-57
2022/11/03 11:26:36;;;;;;;;;;;;;;;21.13;57.56;99741.91;7256539;19;153635;-56
2022/11/03 11:29:04;;;;;;;;;;;;;;;21.12;57.57;99738.25;7263324;19;154356;-57
2022/11/03 11:31:32;;;;;;;;;;;;;;;21.11;57.74;99733.00;7256993;19;156504;-56
2022/11/03 11:34:09;;;;;;;;;;;;;;;21.09;57.49;99730.53;7260865;19;153379;-56
2022/11/03 11:36:36;;;;;;;;;;;;;;;21.08;57.97;99722.44;7257085;19;153764;-56
2022/11/03 11:39:07;;;;;;;;;;;;;;;21.07;57.56;99715.19;7260744;19;153627;-56
2022/11/03 11:41:54;;;;;;;;;;;;;;;21.05;58.02;99698.66;7258174;19;154066;-56
2022/11/03 11:44:41;;;;;;;;;;;;;;;21.05;58.00;99706.28;7258314;19;154145;-57
2022/11/03 11:47:17;;;;;;;;;;;;;;;21.03;58.12;99700.97;7257960;19;155083;-57
2022/11/03 11:49:44;;;;;;;;;;;;;;;21.02;57.83;99702.16;7260077;19;153460;-56
2022/11/03 11:52:11;;;;;;;;;;;;;;;21.02;57.90;99692.91;7263763;19;153992;-57
2022/11/03 11:54:44;;;;;;;;;;;;;;;20.98;57.71;99694.78;7258295;19;153484;-57
2022/11/03 11:57:17;;;;;;;;;;;;;;;20.97;57.92;99693.94;7254576;19;155105;-56
2022/11/03 11:59:45;;;;;;;;;;;;;;;20.95;57.69;99693.47;7258468;19;153944;-56
2022/11/03 12:02:22;;;;;;;;;;;;;;;20.95;57.71;99687.00;7257732;19;153958;-56
2022/11/03 12:04:53;;;;;;;;;;;;;;;20.95;57.66;99685.03;7255542;19;152865;-56
2022/11/03 12:07:30;;;;;;;;;;;;;;;20.92;57.89;99688.53;7256045;19;152676;-58
2022/11/03 12:10:05;;;;;;;;;;;;;;;20.89;58.00;99692.03;7258482;19;153508;-56
2022/11/03 12:12:34;;;;;;;;;;;;;;;20.88;57.85;99697.97;7257528;19;154795;-56
2022/11/03 12:15:01;;;;;;;;;;;;;;;20.88;57.92;99692.38;7263112;19;155297;-56
2022/11/03 12:17:28;;;;;;;;;;;;;;;20.88;58.02;99697.97;7254897;19;152354;-56
2022/11/03 12:19:55;;;;;;;;;;;;;;;20.86;57.71;99709.53;7256229;19;155331;-56
2022/11/03 12:22:22;;;;;;;;;;;;;;;20.85;57.76;99702.28;7257643;19;153087;-56
2022/11/03 12:24:57;;;;;;;;;;;;;;;20.85;58.02;99696.66;7258518;19;153074;-56
2022/11/03 12:27:24;;;;;;;;;;;;;;;20.84;57.98;99700.66;7232206;19;155349;-56
2022/11/03 12:29:52;;;;;;;;;;;;;;;20.84;57.60;99701.47;7245064;19;152433;-56
2022/11/03 12:32:20;;;;;;;;;;;;;;;20.82;57.60;99686.94;7240903;19;153180;-56
2022/11/03 12:35:01;;;;;;;;;;;;;;;20.83;58.04;99691.41;7253168;19;153900;-56
2022/11/03 12:37:28;;;;;;;;;;;;;;;20.88;57.76;99692.38;7250082;19;155938;-57
2022/11/03 12:39:55;;;;;;;;;;;;;;;20.91;57.52;99695.31;7246241;19;154297;-56
2022/11/03 12:42:23;;;;;;;;;;;;;;;20.94;57.38;99694.59;7254701;19;153084;-57
2022/11/03 12:44:51;;;;;;;;;;;;;;;20.95;57.48;99696.25;7252808;19;153961;-56
2022/11/03 12:47:18;;;;;;;;;;;;;;;20.98;57.41;99692.78;7252341;19;154602;-56
2022/11/03 12:49:46;;;;;;;;;;;;;;;21.00;57.49;99681.19;7255559;19;155400;-57
2022/11/03 12:52:13;;;;;;;;;;;;;;;21.02;57.48;99678.88;7255110;19;153923;-57
2022/11/03 12:54:41;;;;;;;;;;;;;;;21.05;57.50;99689.41;7253120;19;154229;-56
2022/11/03 12:57:08;;;;;;;;;;;;;;;21.06;56.96;99680.66;7260938;19;154265;-56
2022/11/03 12:59:35;;;;;;;;;;;;;;;21.09;56.82;99684.75;7254373;19;154152;-56
2022/11/03 13:02:03;;;;;;;;;;;;;;;21.11;57.21;99677.66;7252492;19;153714;-56